createdAt,value
2023-04-19T17:42:01.484Z,13.09
2023-04-19T17:49:02.094Z,12.91
2023-04-19T17:56:01.813Z,12.91
2023-04-19T18:00:02.353Z,12.79
2023-04-19T18:07:01.510Z,12.69
2023-04-19T18:14:02.021Z,12.69
2023-04-19T18:21:01.813Z,12.57
2023-04-19T18:28:02.261Z,12.5
2023-04-19T18:35:02.442Z,12.5
2023-04-19T18:42:01.814Z,12.34
2023-04-19T18:49:02.022Z,12.23
2023-04-19T18:56:01.827Z,12.01
2023-04-19T19:00:02.590Z,12.01
2023-04-19T19:07:10.986Z,11.87
2023-04-19T19:14:01.576Z,11.87
2023-04-19T19:21:01.969Z,11.04
2023-04-19T19:28:08.334Z,11.49
2023-04-19T19:35:04.497Z,11.52
2023-04-19T19:42:05.998Z,11.52
2023-04-19T19:49:01.845Z,11.36
2023-04-19T19:56:01.813Z,11.34
2023-04-19T20:00:22.830Z,11.34
2023-04-19T20:14:01.916Z,11.09
2023-04-19T20:21:02.036Z,11.09
2023-04-19T20:28:01.977Z,10.98
2023-04-19T20:35:01.986Z,10.82
2023-04-19T20:42:01.565Z,10.26
2023-04-19T20:49:01.583Z,10.26
2023-04-19T20:56:01.572Z,10.5
2023-04-19T21:00:02.207Z,10.52
2023-04-19T21:07:01.606Z,10.52
2023-04-19T21:14:01.357Z,10.47
2023-04-19T21:21:01.942Z,10.34
2023-04-19T21:28:02.205Z,10.34
2023-04-19T21:35:02.536Z,10.17
2023-04-19T21:42:01.443Z,10.17
2023-04-19T21:49:01.814Z,10.06
2023-04-19T21:56:01.821Z,10.06
2023-04-19T22:00:02.350Z,10.02
2023-04-19T22:07:01.550Z,10.02
2023-04-19T22:14:01.523Z,9.83
2023-04-19T22:21:01.654Z,9.8
2023-04-19T22:28:01.680Z,9.69
2023-04-19T22:35:02.263Z,9.69
2023-04-19T22:42:01.470Z,9.66
2023-04-19T22:49:01.946Z,9.36
2023-04-19T22:56:01.761Z,9.41
2023-04-19T23:00:02.435Z,9.41
2023-04-19T23:07:01.476Z,9.32
2023-04-19T23:14:01.925Z,9.32
2023-04-19T23:21:01.975Z,9.21
2023-04-19T23:28:01.874Z,9.07
2023-04-19T23:35:02.241Z,8.94
2023-04-19T23:42:02.250Z,8.94
2023-04-19T23:49:01.812Z,8.95
2023-04-19T23:56:01.310Z,8.95
